Time;durP1;ratioP1;P1;durP2;ratioP2;P2;SDS_P1;SDS_P2;PMS_P1;PMS_P2;Temp;Humidity;BMP_temperature;BMP_pressure;BME280_temperature;BME280_humidity;BME280_pressure;Samples;Min_cycle;Max_cycle;Signal;HPM_P1;HPM_P2
2023/12/24 00:00:38;;;;;;;10.75;1.80;;;3.10;99.90;;;1.64;100.00;99674.09;4946209;28;20035;-85
2023/12/24 00:03:04;;;;;;;18.75;1.95;;;3.10;99.90;;;1.64;100.00;99678.41;4927846;28;20027;-83
2023/12/24 00:05:33;;;;;;;19.77;2.28;;;;;;;1.65;100.00;99680.13;4937269;28;20031;-83
2023/12/24 00:08:02;;;;;;;11.40;1.80;;;3.20;99.90;;;1.66;100.00;99671.41;4942747;28;20125;-83
2023/12/24 00:10:28;;;;;;;23.05;2.10;;;;;;;1.68;100.00;99680.00;4948009;28;20081;-84
2023/12/24 00:12:54;;;;;;;12.32;1.58;;;3.20;99.90;;;1.70;100.00;99678.22;4961803;28;20039;-82
2023/12/24 00:15:21;;;;;;;9.85;1.73;;;3.30;99.90;;;1.73;100.00;99674.69;4951700;28;20031;-83
2023/12/24 00:17:52;;;;;;;14.10;1.63;;;3.30;99.90;;;1.74;100.00;99684.19;4945737;28;20023;-85
2023/12/24 00:20:18;;;;;;;22.15;2.17;;;3.20;99.90;;;1.74;100.00;99685.03;4935067;28;20038;-86
2023/12/24 00:23:02;;;;;;;21.45;2.00;;;3.30;99.90;;;1.75;100.00;99686.75;4950672;28;20027;-83
2023/12/24 00:25:28;;;;;;;10.68;1.63;;;3.30;99.90;;;1.77;100.00;99687.56;4943778;28;20087;-84
2023/12/24 00:28:01;;;;;;;13.88;2.13;;;3.30;99.90;;;1.73;100.00;99683.34;4939054;28;20056;-83
2023/12/24 00:30:28;;;;;;;14.48;1.77;;;3.30;99.90;;;1.70;100.00;99672.19;4942426;28;20035;-84
2023/12/24 00:32:55;;;;;;;13.85;2.83;;;3.20;99.90;;;1.71;100.00;99674.75;4945270;28;20052;-84
2023/12/24 00:35:21;;;;;;;11.02;1.50;;;3.20;99.90;;;1.73;100.00;99674.69;4931388;28;20027;-83
2023/12/24 00:37:51;;;;;;;14.48;2.72;;;;;;;1.75;100.00;99680.69;4947258;28;20027;-84
2023/12/24 00:40:18;;;;;;;11.35;1.33;;;;;;;1.78;100.00;99670.25;4949079;28;20085;-85
2023/12/24 00:42:48;;;;;;;12.35;1.85;;;3.30;99.90;;;1.80;100.00;99668.47;4941538;28;20038;-84
2023/12/24 00:45:36;;;;;;;12.65;1.65;;;3.30;99.90;;;1.83;100.00;99664.03;4944092;28;20122;-84
2023/12/24 00:48:02;;;;;;;19.92;2.28;;;3.30;99.90;;;1.85;100.00;99675.22;4943398;28;20658;-83
2023/12/24 00:50:28;;;;;;;16.38;1.63;;;3.40;99.90;;;1.88;100.00;99670.84;4945255;28;20686;-85
2023/12/24 00:52:57;;;;;;;12.80;1.65;;;3.40;99.90;;;1.88;100.00;99669.13;4937306;28;20023;-83
2023/12/24 00:55:28;;;;;;;10.95;1.60;;;;;;;1.91;100.00;99668.16;4939922;28;20385;-84
2023/12/24 00:57:54;;;;;;;9.48;1.50;;;3.40;99.90;;;1.92;100.00;99662.06;4946214;28;20026;-84
2023/12/24 01:00:20;;;;;;;10.02;1.25;;;3.40;99.90;;;1.96;100.00;99674.91;4932724;28;20406;-84
2023/12/24 01:02:46;;;;;;;10.30;1.20;;;;;;;1.96;100.00;99656.75;4944474;28;20426;-83
2023/12/24 01:05:12;;;;;;;12.55;1.45;;;3.50;99.90;;;1.99;100.00;99658.44;4946467;28;20549;-83
2023/12/24 01:07:40;;;;;;;7.80;1.25;;;3.50;99.90;;;2.02;100.00;99658.31;4946801;28;20047;-84
2023/12/24 01:10:09;;;;;;;13.10;1.52;;;3.50;99.90;;;2.04;100.00;99649.59;4940383;28;20046;-85
2023/12/24 01:12:37;;;;;;;17.73;1.30;;;3.50;99.90;;;2.07;100.00;99648.66;4926935;28;20031;-84
2023/12/24 01:15:04;;;;;;;17.45;1.25;;;3.60;99.90;;;2.09;100.00;99646.84;4938483;28;20065;-83
2023/12/24 01:17:30;;;;;;;12.20;1.33;;;3.60;99.90;;;2.10;100.00;99650.34;4940675;28;20027;-83
2023/12/24 01:19:59;;;;;;;11.00;1.58;;;;;;;2.14;100.00;99657.09;4947840;28;20034;-84
2023/12/24 01:22:28;;;;;;;9.65;1.42;;;3.60;99.90;;;2.13;100.00;99653.66;4940773;28;20046;-85
2023/12/24 01:24:54;;;;;;;10.93;1.83;;;;;;;2.15;100.00;99646.69;4928601;28;20035;-84
2023/12/24 01:27:20;;;;;;;11.25;1.55;;;3.70;99.90;;;2.17;100.00;99641.44;4943418;28;20134;-83
2023/12/24 01:29:56;;;;;;;;;;;;;;;;;;;;;
2023/12/24 01:32:22;;;;;;;11.07;1.35;;;;;;;2.18;100.00;99649.22;4948163;28;20027;-83
2023/12/24 01:34:48;;;;;;;13.93;1.98;;;3.70;99.90;;;2.17;100.00;99657.88;4937632;28;20034;-85
2023/12/24 01:37:20;;;;;;;20.27;1.80;;;3.70;99.90;;;2.17;100.00;99659.63;4931646;28;20034;-84
2023/12/24 01:39:48;;;;;;;8.07;1.95;;;3.70;99.90;;;2.18;100.00;99656.13;4943382;28;20054;-83
2023/12/24 01:42:14;;;;;;;13.57;1.98;;;3.70;99.90;;;2.17;100.00;99651.84;4927620;28;20685;-84
2023/12/24 01:44:40;;;;;;;19.33;2.28;;;3.70;99.90;;;2.15;100.00;99651.88;4931222;28;20031;-83
2023/12/24 01:47:11;;;;;;;14.27;1.60;;;3.70;99.90;;;2.20;100.00;99649.13;4936327;29;20027;-85
2023/12/24 01:49:39;;;;;;;4.07;1.20;;;3.70;99.90;;;2.22;100.00;99653.38;4929442;28;20046;-84
2023/12/24 01:52:08;;;;;;;8.00;1.55;;;3.70;99.90;;;2.23;100.00;99647.31;4948211;28;20035;-83
2023/12/24 01:54:39;;;;;;;7.60;1.50;;;3.70;99.90;;;2.20;100.00;99643.94;4939607;28;20027;-83
2023/12/24 01:57:05;;;;;;;8.45;1.45;;;3.70;99.90;;;2.17;100.00;99647.50;4949932;28;20054;-84
2023/12/24 01:59:34;;;;;;;16.17;1.90;;;3.70;99.90;;;2.21;100.00;99649.09;4943451;28;20608;-83
2023/12/24 02:02:03;;;;;;;12.73;3.05;;;3.70;99.90;;;2.22;100.00;99661.19;4945425;28;20039;-84
2023/12/24 02:04:33;;;;;;;11.13;1.60;;;;;;;2.21;100.00;99650.84;4950481;28;20027;-84
2023/12/24 02:06:58;;;;;;;12.70;1.98;;;3.70;99.90;;;2.20;100.00;99655.22;4947472;28;20122;-84
2023/12/24 02:09:27;;;;;;;10.70;1.45;;;3.70;99.90;;;2.21;100.00;99654.28;4947999;28;20540;-85
2023/12/24 02:11:53;;;;;;;19.50;1.85;;;3.70;99.90;;;2.22;100.00;99661.19;4948471;28;20040;-83
2023/12/24 02:14:26;;;;;;;11.93;1.48;;;3.70;99.90;;;2.25;100.00;99668.06;4946504;29;20086;-84
2023/12/24 02:16:55;;;;;;;10.88;1.42;;;3.70;99.90;;;2.23;100.00;99665.50;4933300;28;20035;-82
2023/12/24 02:19:31;;;;;;;10.90;1.35;;;3.40;99.90;;;2.21;100.00;99669.88;4939637;29;20035;-83
2023/12/24 02:21:59;;;;;;;6.23;0.93;;;3.60;99.90;;;2.09;100.00;99674.59;4948526;28;20036;-84
2023/12/24 02:24:32;;;;;;;15.60;1.40;;;3.70;99.90;;;2.09;100.00;99671.97;4927315;28;20352;-85
2023/12/24 02:27:44;;;;;;;3.47;0.82;;;3.70;99.90;;;2.08;100.00;99670.28;4954222;28;20052;-84
2023/12/24 02:30:39;;;;;;;14.02;1.10;;;3.60;99.90;;;1.93;100.00;99669.81;4884162;29;20036;-84
2023/12/24 02:33:11;;;;;;;8.27;0.70;;;3.50;99.90;;;1.86;100.00;99668.31;4888454;29;20068;-84
2023/12/24 02:36:01;;;;;;;8.98;0.70;;;3.50;99.90;;;1.79;100.00;99680.59;4879550;29;20040;-86
2023/12/24 02:38:33;;;;;;;10.88;0.98;;;;;;;1.76;100.00;99675.47;4873113;29;20037;-85
2023/12/24 02:41:19;;;;;;;12.30;1.23;;;3.30;99.90;;;1.68;100.00;99677.41;4887406;29;20036;-85
2023/12/24 02:43:52;;;;;;;12.75;0.88;;;;;;;1.64;100.00;99668.00;4874481;29;20140;-86
2023/12/24 02:46:31;;;;;;;7.05;1.27;;;3.20;99.90;;;1.58;100.00;99657.81;4889384;29;20036;-86
2023/12/24 02:48:57;;;;;;;10.15;0.90;;;3.10;99.90;;;1.49;100.00;99651.13;4888812;29;20048;-87
2023/12/24 02:51:32;;;;;;;6.28;0.70;;;;;;;1.39;100.00;99652.25;4895964;29;20088;-85
2023/12/24 02:54:00;;;;;;;12.67;1.00;;;;;;;1.35;100.00;99650.63;4885889;29;20055;-86
2023/12/24 02:56:36;;;;;;;12.55;1.25;;;;;;;1.32;100.00;99656.75;4884423;29;20077;-87
2023/12/24 02:59:21;;;;;;;12.50;1.27;;;2.90;99.90;;;1.29;100.00;99650.78;4896043;29;20047;-85
2023/12/24 03:02:10;;;;;;;6.25;0.80;;;;;;;1.21;100.00;99653.59;4888860;29;20036;-87
2023/12/24 03:04:36;;;;;;;9.23;1.05;;;2.80;99.90;;;1.13;100.00;99645.16;4938092;28;20038;-86
2023/12/24 03:07:02;;;;;;;6.78;0.95;;;2.70;99.90;;;1.08;100.00;99641.81;4909040;29;20091;-85
2023/12/24 03:09:29;;;;;;;12.60;1.30;;;;;;;1.02;100.00;99643.69;4896949;29;20048;-85
2023/12/24 03:12:02;;;;;;;10.65;1.33;;;2.60;99.90;;;0.96;100.00;99628.28;4899615;29;20085;-86
2023/12/24 03:14:30;;;;;;;7.22;0.63;;;2.60;99.90;;;0.91;100.00;99624.09;4878052;29;20057;-86
2023/12/24 03:16:56;;;;;;;11.70;1.13;;;;;;;0.84;100.00;99620.78;4880957;29;20135;-86
2023/12/24 03:19:34;;;;;;;5.13;0.70;;;2.50;99.90;;;0.83;100.00;99611.31;4895658;29;20063;-86
2023/12/24 03:22:00;;;;;;;14.80;0.90;;;;;;;0.78;100.00;99613.19;4896896;29;20036;-86
2023/12/24 03:24:51;;;;;;;3.85;0.55;;;2.40;99.90;;;0.76;100.00;99610.63;4909324;29;20040;-85
2023/12/24 03:27:18;;;;;;;10.82;1.20;;;;;;;0.75;100.00;99618.44;4889227;29;20075;-85
2023/12/24 03:29:44;;;;;;;6.90;0.90;;;;;;;0.72;100.00;99614.19;4898474;29;20459;-85
2023/12/24 03:32:21;;;;;;;9.25;1.00;;;2.30;99.90;;;0.71;100.00;99617.63;4899406;29;20044;-85
2023/12/24 03:34:47;;;;;;;6.82;0.90;;;2.30;99.90;;;0.72;100.00;99618.50;4897732;29;20120;-84
2023/12/24 03:37:13;;;;;;;18.45;1.33;;;;;;;0.74;100.00;99617.59;4889046;29;20035;-84
2023/12/24 03:39:40;;;;;;;6.32;0.80;;;;;;;0.75;100.00;99624.47;4946810;28;20485;-84
2023/12/24 03:42:10;;;;;;;10.15;1.42;;;2.30;99.90;;;0.75;100.00;99621.03;4950827;28;20414;-84
2023/12/24 03:44:39;;;;;;;10.25;0.93;;;2.30;99.90;;;0.73;100.00;99609.84;4934723;28;20028;-84
2023/12/24 03:47:12;;;;;;;7.07;0.88;;;2.30;99.90;;;0.74;100.00;99612.41;4940811;29;20023;-84
2023/12/24 03:49:38;;;;;;;12.32;0.93;;;2.30;99.90;;;0.72;100.00;99601.22;4947240;28;20026;-85
2023/12/24 03:52:05;;;;;;;8.65;1.00;;;2.30;99.90;;;0.71;100.00;99602.09;4950496;28;20034;-86
2023/12/24 03:54:31;;;;;;;9.00;1.65;;;2.30;99.90;;;0.72;100.00;99605.56;4926199;29;20024;-82
2023/12/24 03:57:05;;;;;;;5.00;0.70;;;;;;;0.70;100.00;99610.78;4923465;28;20432;-85
2023/12/24 03:59:30;;;;;;;6.50;1.05;;;2.30;99.90;;;0.68;100.00;99611.69;4941426;28;20086;-84
2023/12/24 04:01:59;;;;;;;11.38;1.60;;;;;;;0.68;100.00;99606.53;4945293;28;20038;-85
2023/12/24 04:04:25;;;;;;;7.75;0.85;;;2.30;99.90;;;0.67;100.00;99610.84;4944899;28;20110;-84
2023/12/24 04:07:00;;;;;;;7.38;0.90;;;2.30;99.90;;;0.67;100.00;99599.63;4948295;28;20115;-83
2023/12/24 04:09:28;;;;;;;4.85;0.57;;;2.30;99.90;;;0.66;100.00;99598.78;4952497;28;20033;-85
2023/12/24 04:12:01;;;;;;;9.57;1.08;;;2.30;99.90;;;0.62;100.00;99599.72;4944668;28;20036;-85
2023/12/24 04:14:30;;;;;;;3.25;0.60;;;2.20;99.90;;;0.61;100.00;99595.47;4940679;28;20050;-85
2023/12/24 04:16:56;;;;;;;6.60;0.88;;;2.20;99.90;;;0.59;100.00;99598.06;4949889;28;20027;-85
2023/12/24 04:19:21;;;;;;;5.13;1.20;;;2.20;99.90;;;0.59;100.00;99595.47;4939114;28;20031;-84
2023/12/24 04:21:57;;;;;;;5.55;1.25;;;2.20;99.90;;;0.64;100.00;99604.88;4953244;28;20026;-86
2023/12/24 04:24:24;;;;;;;7.70;1.40;;;2.20;99.90;;;0.58;100.00;99605.88;4947506;28;20062;-84
2023/12/24 04:27:01;;;;;;;9.40;2.08;;;2.20;99.90;;;0.59;100.00;99597.22;4945793;28;20439;-84
2023/12/24 04:29:26;;;;;;;7.57;1.23;;;2.20;99.90;;;0.63;100.00;99600.56;4942919;28;20034;-85
2023/12/24 04:31:52;;;;;;;8.70;1.50;;;2.20;99.90;;;0.63;100.00;99583.31;4944921;28;20027;-84
2023/12/24 04:34:25;;;;;;;5.65;1.55;;;2.20;99.90;;;0.74;100.00;99590.81;4941857;28;20023;-85
2023/12/24 04:36:54;;;;;;;6.00;1.15;;;;;;;0.72;100.00;99585.69;4947924;28;20031;-84
2023/12/24 04:39:20;;;;;;;2.28;1.17;;;;;;;0.73;100.00;99586.53;4941738;28;20105;-85
2023/12/24 04:41:53;;;;;;;5.53;1.50;;;2.30;99.90;;;0.75;100.00;99597.69;4954472;28;20054;-85
2023/12/24 04:44:19;;;;;;;4.03;1.30;;;2.30;99.90;;;0.79;100.00;99605.34;4948681;29;20043;-84
2023/12/24 04:46:50;;;;;;;3.80;1.00;;;2.30;99.90;;;0.77;100.00;99595.94;4949520;29;20494;-85
2023/12/24 04:49:23;;;;;;;0.60;0.55;;;2.40;99.90;;;0.80;100.00;99598.47;4949460;28;20038;-85
2023/12/24 04:51:49;;;;;;;3.00;0.80;;;2.40;99.90;;;0.82;100.00;99591.47;4946923;28;20027;-86
2023/12/24 04:54:15;;;;;;;2.95;0.85;;;2.30;99.90;;;0.82;100.00;99591.47;4948606;28;20050;-85
2023/12/24 04:56:40;;;;;;;3.58;0.93;;;2.40;99.90;;;0.82;100.00;99581.09;4942131;28;20486;-85
2023/12/24 04:59:09;;;;;;;1.50;0.70;;;2.40;99.90;;;0.84;100.00;99581.06;4932245;28;20030;-85
2023/12/24 05:01:40;;;;;;;2.20;0.73;;;2.40;99.90;;;0.85;100.00;99580.19;4929187;28;20031;-85
2023/12/24 05:04:08;;;;;;;4.45;0.68;;;2.40;99.90;;;0.85;100.00;99583.63;4933014;28;20118;-85
2023/12/24 05:06:43;;;;;;;1.75;0.82;;;2.40;99.90;;;0.85;100.00;99587.97;4938045;28;20126;-84
2023/12/24 05:09:09;;;;;;;0.80;0.50;;;2.30;99.90;;;0.84;100.00;99579.31;4931149;28;20102;-85
2023/12/24 05:11:47;;;;;;;4.20;0.60;;;2.40;99.90;;;0.80;100.00;99572.53;4945094;28;20031;-85
2023/12/24 05:14:13;;;;;;;1.67;0.55;;;2.40;99.90;;;0.75;100.00;99571.78;4947462;28;20035;-85
2023/12/24 05:16:39;;;;;;;1.85;0.60;;;2.30;99.90;;;0.72;100.00;99564.09;4947089;28;20175;-85
2023/12/24 05:19:05;;;;;;;10.00;0.82;;;2.30;99.90;;;0.67;100.00;99563.34;4944548;28;20106;-84
2023/12/24 05:21:35;;;;;;;1.52;0.60;;;2.30;99.90;;;0.68;100.00;99562.47;4940109;28;20027;-85
2023/12/24 05:24:01;;;;;;;1.50;0.77;;;;;;;0.64;100.00;99547.88;4946261;29;20070;-85
2023/12/24 05:26:30;;;;;;;2.65;0.55;;;2.20;99.90;;;0.60;100.00;99539.34;4948769;29;20070;-85
2023/12/24 05:28:56;;;;;;;1.95;0.70;;;2.00;99.90;;;0.58;100.00;99534.22;4926475;29;20474;-85
2023/12/24 05:31:31;;;;;;;0.93;0.60;;;2.20;99.90;;;0.56;100.00;99533.41;4951117;28;20049;-84
2023/12/24 05:33:59;;;;;;;1.00;0.70;;;2.10;99.90;;;0.53;100.00;99524.84;4934291;28;20485;-84
2023/12/24 05:36:35;;;;;;;1.45;0.90;;;;;;;0.51;100.00;99524.88;4944543;28;20030;-86
2023/12/24 05:39:03;;;;;;;3.22;0.95;;;2.10;99.90;;;0.48;100.00;99521.53;4947104;28;20058;-85
2023/12/24 05:41:29;;;;;;;1.48;0.90;;;2.10;99.90;;;0.47;100.00;99518.06;4951043;28;20034;-85
2023/12/24 05:44:02;;;;;;;2.70;1.13;;;2.10;99.90;;;0.48;100.00;99518.94;4948345;28;20027;-85
2023/12/24 05:46:28;;;;;;;3.55;1.42;;;;;;;0.47;100.00;99522.41;4932122;28;20062;-84
2023/12/24 05:48:54;;;;;;;1.30;0.95;;;2.10;99.90;;;0.44;100.00;99519.91;4949740;28;20481;-83
2023/12/24 05:51:20;;;;;;;2.20;1.05;;;2.10;99.90;;;0.47;100.00;99523.25;4950865;28;20037;-84
2023/12/24 05:53:51;;;;;;;1.60;0.82;;;2.10;99.90;;;0.45;100.00;99519.84;4949166;28;20036;-85
2023/12/24 05:56:19;;;;;;;1.67;0.93;;;2.00;99.90;;;0.46;100.00;99529.31;4943579;28;20028;-85
2023/12/24 05:58:45;;;;;;;3.83;1.10;;;2.00;99.90;;;0.42;100.00;99512.16;4945067;28;20075;-85
2023/12/24 06:01:11;;;;;;;2.60;0.68;;;2.00;99.90;;;0.41;100.00;99513.03;4954260;28;20034;-84
2023/12/24 06:03:37;;;;;;;1.10;0.90;;;2.10;99.90;;;0.39;100.00;99509.66;4948169;28;20035;-85
2023/12/24 06:06:08;;;;;;;1.15;0.60;;;2.00;99.90;;;0.39;100.00;99518.28;4950672;28;20035;-84
2023/12/24 06:08:34;;;;;;;0.80;0.57;;;2.00;99.90;;;0.38;100.00;99515.72;4930674;28;20035;-83
2023/12/24 06:11:00;;;;;;;0.82;0.55;;;2.00;99.90;;;0.35;100.00;99514.03;4943690;28;20142;-84
2023/12/24 06:13:26;;;;;;;3.13;0.50;;;;;;;0.33;100.00;99510.66;4935335;28;20401;-85
2023/12/24 06:15:51;;;;;;;0.80;0.50;;;1.90;99.90;;;0.31;100.00;99503.81;4949654;28;20032;-84
2023/12/24 06:18:25;;;;;;;0.95;0.60;;;1.90;99.90;;;0.26;100.00;99497.88;4948202;28;20500;-84
2023/12/24 06:20:51;;;;;;;2.05;0.63;;;1.90;99.90;;;0.22;100.00;99498.81;4947371;28;20516;-85
2023/12/24 06:23:16;;;;;;;1.58;0.50;;;1.80;99.90;;;0.14;100.00;99489.50;4946569;28;20118;-83
2023/12/24 06:25:42;;;;;;;0.88;0.60;;;1.80;99.90;;;0.10;100.00;99490.47;4945154;28;20385;-84
2023/12/24 06:28:08;;;;;;;0.57;0.30;;;1.80;99.90;;;0.08;100.00;99487.06;4937997;28;20032;-84
2023/12/24 06:30:39;;;;;;;0.30;0.30;;;1.80;99.90;;;0.11;100.00;99496.50;4944187;28;20035;-84
2023/12/24 06:33:05;;;;;;;0.45;0.40;;;1.80;99.90;;;0.10;100.00;99487.88;4954987;28;20120;-84
2023/12/24 06:35:31;;;;;;;3.05;0.70;;;1.80;99.90;;;0.06;100.00;99481.06;4953103;28;20033;-84
2023/12/24 06:37:57;;;;;;;0.50;0.47;;;;;;;0.07;100.00;99475.03;4944212;28;20032;-85
2023/12/24 06:40:24;;;;;;;2.50;0.80;;;1.80;99.90;;;0.07;100.00;99479.34;4946670;28;20393;-84
2023/12/24 06:42:49;;;;;;;1.40;0.50;;;1.70;99.90;;;0.09;100.00;99472.41;4948073;28;20022;-85
2023/12/24 06:45:21;;;;;;;1.13;0.50;;;1.70;99.90;;;0.07;100.00;99464.66;4950563;28;20556;-85
2023/12/24 06:47:46;;;;;;;0.90;0.60;;;1.70;99.90;;;0.07;100.00;99456.91;4926391;28;20028;-84
2023/12/24 06:50:12;;;;;;;1.23;0.40;;;1.70;99.90;;;0.08;100.00;99456.00;4949888;28;20402;-83
2023/12/24 06:52:38;;;;;;;0.85;0.57;;;1.70;99.90;;;0.05;100.00;99437.97;4944302;28;20026;-84
2023/12/24 06:55:04;;;;;;;1.50;0.50;;;1.70;99.90;;;0.02;100.00;99437.19;4942997;28;20027;-83
2023/12/24 06:57:38;;;;;;;0.52;0.20;;;1.70;99.90;;;-0.02;100.00;99428.66;4960107;28;20493;-84
2023/12/24 07:00:05;;;;;;;0.75;0.35;;;1.70;99.90;;;-0.04;100.00;99425.28;4944557;28;20126;-82
2023/12/24 07:02:31;;;;;;;1.50;0.70;;;1.60;99.90;;;-0.06;100.00;99424.44;4930310;28;20031;-82
2023/12/24 07:04:57;;;;;;;0.52;0.32;;;1.70;99.90;;;0.00;100.00;99421.72;4945887;28;20025;-85
2023/12/24 07:07:33;;;;;;;2.38;1.05;;;1.70;99.90;;;0.03;100.00;99413.88;4946718;28;20031;-82
2023/12/24 07:09:59;;;;;;;0.15;0.13;;;1.60;99.90;;;-0.07;100.00;99395.13;4943805;28;20038;-83
2023/12/24 07:12:25;;;;;;;0.55;0.32;;;1.70;99.90;;;-0.08;100.00;99390.84;4945988;28;20561;-83
2023/12/24 07:14:56;;;;;;;0.25;0.13;;;;;;;-0.06;100.00;99393.41;4929862;28;20174;-83
2023/12/24 07:17:22;;;;;;;0.32;0.22;;;1.60;99.90;;;-0.06;100.00;99389.06;4949466;28;20042;-83
2023/12/24 07:19:50;;;;;;;0.10;0.10;;;1.70;99.90;;;-0.04;100.00;99386.44;4944465;28;20027;-82
2023/12/24 07:22:17;;;;;;;0.10;0.00;;;1.70;99.90;;;-0.13;100.00;99369.41;4942734;28;20031;-84
2023/12/24 07:24:50;;;;;;;0.22;0.20;;;1.60;99.90;;;-0.10;100.00;99366.75;4934851;29;20083;-83
2023/12/24 07:27:21;;;;;;;0.10;0.08;;;1.60;99.90;;;-0.08;100.00;99367.56;4934064;29;20066;-83
2023/12/24 07:29:52;;;;;;;1.13;0.43;;;1.70;99.90;;;-0.08;100.00;99357.19;4932722;28;20748;-84
2023/12/24 07:32:18;;;;;;;0.55;0.10;;;1.70;99.90;;;-0.05;100.00;99357.09;4941346;28;20055;-85
2023/12/24 07:34:44;;;;;;;0.98;0.20;;;1.60;99.90;;;-0.03;100.00;99355.34;4940535;29;20032;-82
2023/12/24 07:37:10;;;;;;;0.52;0.20;;;1.70;99.90;;;0.00;100.00;99349.25;4948079;28;20032;-83
2023/12/24 07:39:35;;;;;;;0.00;0.00;;;1.70;99.90;;;0.01;100.00;99358.72;4930749;28;20039;-82
2023/12/24 07:42:02;;;;;;;0.52;0.20;;;1.70;99.90;;;0.02;100.00;99341.44;4948457;28;20089;-82
2023/12/24 07:44:31;;;;;;;0.15;0.10;;;2.60;99.90;;;-0.01;100.00;99339.78;4944065;28;20070;-83
2023/12/24 07:46:57;;;;;;;0.10;0.10;;;1.70;99.90;;;-0.02;100.00;99333.75;4931472;28;20508;-83
2023/12/24 07:49:24;;;;;;;0.88;0.20;;;1.70;99.90;;;-0.02;100.00;99331.19;4946791;28;20027;-82
2023/12/24 07:51:49;;;;;;;0.30;0.10;;;1.70;99.90;;;-0.08;100.00;99328.75;4944061;28;20769;-83
2023/12/24 07:54:15;;;;;;;0.10;0.10;;;1.70;99.90;;;-0.10;100.00;99320.16;4944629;28;20034;-84
2023/12/24 07:56:41;;;;;;;0.10;0.10;;;1.70;99.90;;;-0.07;100.00;99314.06;4943869;28;20118;-81
2023/12/24 07:59:12;;;;;;;0.10;0.10;;;1.60;99.90;;;-0.10;100.00;99322.75;4929721;28;20037;-82
2023/12/24 08:01:37;;;;;;;0.40;0.20;;;1.70;99.90;;;-0.09;100.00;99308.06;4927885;28;20391;-83
2023/12/24 08:04:04;;;;;;;4.03;0.10;;;1.70;99.90;;;-0.08;100.00;99318.38;4945103;28;20026;-81
2023/12/24 08:06:30;;;;;;;0.10;0.10;;;1.70;99.90;;;-0.11;100.00;99315.00;4938691;28;20028;-81
2023/12/24 08:08:57;;;;;;;0.15;0.05;;;1.70;99.90;;;-0.07;100.00;99316.63;4930878;28;20024;-81
2023/12/24 08:11:31;;;;;;;0.75;0.20;;;1.60;99.90;;;-0.06;100.00;99314.03;4946209;28;20069;-81
2023/12/24 08:13:57;;;;;;;2.08;0.25;;;1.70;99.90;;;-0.02;100.00;99317.38;4943334;28;20023;-83
2023/12/24 08:16:23;;;;;;;0.75;0.22;;;1.70;99.90;;;0.02;100.00;99310.38;4928345;28;20041;-81
2023/12/24 08:18:48;;;;;;;0.60;0.30;;;1.70;99.90;;;-0.01;100.00;99303.56;4945579;28;20059;-82
2023/12/24 08:21:19;;;;;;;0.20;0.20;;;1.70;99.90;;;0.01;100.00;99304.34;4946184;28;20049;-82
2023/12/24 08:23:45;;;;;;;0.22;0.13;;;1.70;99.90;;;0.04;100.00;99309.44;4948332;28;20025;-82
2023/12/24 08:26:11;;;;;;;1.10;0.10;;;1.70;99.90;;;-0.02;100.00;99294.94;4943530;28;20035;-82
2023/12/24 08:28:39;;;;;;;0.38;0.20;;;1.70;99.90;;;0.02;100.00;99295.69;4927802;28;20035;-82
2023/12/24 08:31:14;;;;;;;0.25;0.20;;;1.70;99.90;;;0.07;100.00;99296.44;4946206;28;20471;-85
2023/12/24 08:33:40;;;;;;;0.20;0.20;;;1.80;99.90;;;0.06;100.00;99284.38;4938924;28;20043;-83
2023/12/24 08:36:12;;;;;;;0.60;0.43;;;;;;;0.10;100.00;99292.91;4943244;28;20027;-83
2023/12/24 08:38:41;;;;;;;0.50;0.43;;;1.80;99.90;;;0.08;100.00;99289.50;4962507;28;20134;-83
2023/12/24 08:41:07;;;;;;;1.20;0.60;;;1.80;99.90;;;0.08;100.00;99274.81;4942017;28;20040;-82
2023/12/24 08:43:32;;;;;;;0.45;0.43;;;1.80;99.90;;;0.11;100.00;99276.47;4943122;28;20166;-82
2023/12/24 08:46:00;;;;;;;1.00;0.43;;;1.80;99.90;;;0.16;100.00;99278.06;4942973;28;20034;-83
2023/12/24 08:48:31;;;;;;;0.28;0.22;;;1.80;99.90;;;0.13;100.00;99265.22;4942364;28;20041;-83
2023/12/24 08:50:57;;;;;;;1.92;0.30;;;1.80;99.90;;;0.12;100.00;99265.25;4940559;28;20031;-83
2023/12/24 08:53:23;;;;;;;0.20;0.20;;;1.80;99.90;;;0.16;100.00;99270.28;4945171;28;20023;-83
2023/12/24 08:55:48;;;;;;;0.73;0.30;;;1.80;99.90;;;0.20;100.00;99265.91;4945261;28;20136;-84
2023/12/24 08:58:15;;;;;;;0.05;0.05;;;1.90;99.90;;;0.18;100.00;99265.09;4946353;28;20031;-81
2023/12/24 09:00:41;;;;;;;0.70;0.38;;;1.90;99.90;;;0.24;100.00;99264.06;4943220;28;20133;-83
2023/12/24 09:03:11;;;;;;;0.70;0.40;;;1.90;99.90;;;0.21;100.00;99257.22;4937904;28;20067;-83
2023/12/24 09:05:39;;;;;;;0.80;0.47;;;1.90;99.90;;;0.24;100.00;99261.47;4946805;28;20061;-83
2023/12/24 09:08:08;;;;;;;13.85;3.50;;;1.90;99.90;;;0.24;100.00;99261.47;4930176;28;20027;-83
2023/12/24 09:10:41;;;;;;;19.02;3.88;;;1.90;99.90;;;0.26;100.00;99249.31;4942298;28;20114;-82
2023/12/24 09:13:07;;;;;;;6.20;2.67;;;1.90;99.90;;;0.27;100.00;99243.28;4942152;28;20030;-83
2023/12/24 09:15:36;;;;;;;2.67;1.40;;;1.90;99.90;;;0.28;100.00;99239.78;4946224;28;20061;-82
2023/12/24 09:18:11;;;;;;;2.13;0.60;;;2.00;99.90;;;0.30;100.00;99236.28;4939051;28;20121;-82
2023/12/24 09:20:39;;;;;;;0.68;0.50;;;;;;;0.30;100.00;99238.00;4947271;28;20023;-82
2023/12/24 09:23:13;;;;;;;3.40;1.63;;;1.90;99.90;;;0.31;100.00;99231.94;4942912;28;20095;-82
2023/12/24 09:25:39;;;;;;;1.30;1.02;;;2.00;99.90;;;0.32;100.00;99229.28;4941870;28;20031;-84
2023/12/24 09:28:06;;;;;;;1.73;0.80;;;2.00;99.90;;;0.35;100.00;99228.38;4940318;28;20046;-82
2023/12/24 09:30:32;;;;;;;2.97;1.30;;;2.00;99.90;;;0.38;100.00;99225.69;4945318;28;20053;-82
2023/12/24 09:33:03;;;;;;;2.63;0.98;;;2.00;99.90;;;0.36;100.00;99217.09;4942383;28;20133;-84
2023/12/24 09:35:32;;;;;;;3.28;1.52;;;2.00;99.90;;;0.36;100.00;99217.09;4943347;28;20043;-84
2023/12/24 09:37:58;;;;;;;3.35;1.77;;;2.10;99.90;;;0.40;100.00;99221.31;4943432;28;20031;-84
2023/12/24 09:40:32;;;;;;;6.20;1.90;;;2.10;99.90;;;0.42;100.00;99222.13;4943467;28;20728;-82
2023/12/24 09:42:59;;;;;;;2.92;0.95;;;2.10;99.90;;;0.40;100.00;99214.38;4940764;28;20038;-83
2023/12/24 09:45:25;;;;;;;3.53;1.05;;;2.10;99.90;;;0.45;100.00;99213.41;4942193;28;20106;-84
2023/12/24 09:47:51;;;;;;;1.92;0.63;;;2.10;99.90;;;0.44;100.00;99209.13;4943017;28;20035;-83
2023/12/24 09:50:23;;;;;;;1.88;0.95;;;2.10;99.90;;;0.45;100.00;99210.81;4935153;28;20050;-84
2023/12/24 09:52:53;;;;;;;1.73;1.00;;;2.10;99.90;;;0.50;100.00;99209.78;4942433;28;20409;-84
2023/12/24 09:55:21;;;;;;;1.13;0.82;;;2.10;99.90;;;0.51;100.00;99205.44;4945649;28;20085;-84
2023/12/24 09:57:53;;;;;;;1.88;1.10;;;2.10;99.90;;;0.52;100.00;99208.00;4924316;28;20533;-83
2023/12/24 10:00:22;;;;;;;1.30;0.77;;;2.20;99.90;;;0.50;100.00;99191.66;4942604;28;20035;-84
2023/12/24 10:02:59;;;;;;;2.63;1.30;;;2.20;99.90;;;0.56;100.00;99188.91;4930759;28;20055;-84
2023/12/24 10:05:42;;;;;;;2.35;1.40;;;2.20;99.90;;;0.57;100.00;99180.22;4942374;28;20553;-84
2023/12/24 10:08:20;;;;;;;12.35;1.60;;;;;;;0.61;100.00;99178.38;4943237;28;20063;-84
2023/12/24 10:10:51;;;;;;;4.28;2.35;;;2.20;99.90;;;0.71;100.00;99176.34;4941994;28;20039;-84
2023/12/24 10:13:23;;;;;;;4.40;1.80;;;2.30;99.90;;;0.72;100.00;99171.13;4942942;28;20134;-84
2023/12/24 10:16:18;;;;;;;10.00;1.85;;;2.30;99.90;;;0.80;100.00;99165.72;4939953;28;20101;-84
2023/12/24 10:19:04;;;;;;;5.45;2.33;;;2.40;99.90;;;0.78;100.00;99163.16;4922863;28;20029;-83
2023/12/24 10:21:41;;;;;;;16.20;2.90;;;2.40;99.90;;;0.85;100.00;99148.25;4945924;28;20039;-84
2023/12/24 10:24:34;;;;;;;3.50;1.95;;;2.40;99.90;;;0.91;100.00;99153.25;4945181;28;20031;-84
2023/12/24 10:27:16;;;;;;;4.15;2.25;;;;;;;0.93;100.00;99148.88;4944587;28;20043;-84
2023/12/24 10:29:51;;;;;;;3.47;1.77;;;2.50;99.90;;;0.96;100.00;99135.81;4945381;28;20079;-84
2023/12/24 10:32:31;;;;;;;2.92;1.80;;;2.50;99.90;;;0.99;100.00;99120.16;4936510;28;20044;-84
2023/12/24 10:38:13;;;;;;;4.15;2.50;;;;;;;1.19;100.00;99123.84;4872053;29;20045;-84
2023/12/24 10:40:39;;;;;;;3.70;2.28;;;;;;;1.25;100.00;99117.56;4880653;29;20089;-84
2023/12/24 10:43:11;;;;;;;5.93;2.35;;;2.80;99.90;;;1.29;100.00;99120.00;4890016;29;20056;-85
2023/12/24 10:45:43;;;;;;;3.83;2.17;;;2.80;99.90;;;1.37;100.00;99114.56;4852930;29;20476;-85
2023/12/24 10:48:31;;;;;;;16.45;2.75;;;2.90;99.90;;;1.43;100.00;99101.41;4861187;29;20060;-85